createdAt,value
2018-12-23T00:00:50.486Z,13.39
2018-12-23T00:03:19.855Z,13.30
2018-12-23T00:05:49.506Z,13.32
2018-12-23T00:08:18.860Z,13.31
2018-12-23T00:10:48.093Z,13.36
2018-12-23T00:13:17.492Z,13.38
2018-12-23T00:15:47.033Z,13.34
2018-12-23T00:18:16.353Z,13.15
2018-12-23T00:20:45.735Z,13.00
2018-12-23T00:23:14.906Z,12.97
2018-12-23T00:25:44.179Z,12.92
2018-12-23T00:28:13.692Z,12.87
2018-12-23T00:30:43.131Z,12.62
2018-12-23T00:33:12.678Z,12.40
2018-12-23T00:35:41.933Z,12.36
2018-12-23T00:38:11.293Z,12.29
2018-12-23T00:40:40.750Z,12.36
2018-12-23T00:43:10.531Z,12.43
2018-12-23T00:45:39.944Z,12.50
2018-12-23T00:48:09.144Z,12.53
2018-12-23T00:50:38.365Z,12.63
2018-12-23T00:53:07.540Z,12.68
2018-12-23T00:55:36.957Z,12.70
2018-12-23T00:58:06.200Z,12.68
2018-12-23T01:00:35.770Z,12.73
2018-12-23T01:03:04.992Z,12.76
2018-12-23T01:05:34.236Z,12.61
2018-12-23T01:08:03.499Z,12.57
2018-12-23T01:10:33.631Z,12.58
2018-12-23T01:13:02.940Z,12.59
2018-12-23T01:15:32.370Z,12.60
2018-12-23T01:18:01.601Z,12.66
2018-12-23T01:20:30.751Z,12.69
2018-12-23T01:23:00.155Z,12.73
2018-12-23T01:25:29.432Z,12.78
2018-12-23T01:27:58.996Z,12.80
2018-12-23T01:30:28.449Z,12.79
2018-12-23T01:32:57.678Z,12.77
2018-12-23T01:35:26.810Z,12.79
2018-12-23T01:37:56.087Z,12.78
2018-12-23T01:40:25.684Z,12.69
2018-12-23T01:42:55.132Z,12.69
2018-12-23T01:45:24.347Z,12.65
2018-12-23T01:47:53.819Z,12.54
2018-12-23T01:50:23.072Z,12.37
2018-12-23T01:52:52.395Z,12.35
2018-12-23T01:55:21.844Z,12.34
2018-12-23T01:57:51.319Z,12.25
2018-12-23T02:00:20.668Z,12.31
2018-12-23T02:02:49.917Z,12.42
2018-12-23T02:05:19.360Z,12.50
2018-12-23T02:07:48.878Z,12.55
2018-12-23T02:10:18.066Z,12.62
2018-12-23T02:12:47.343Z,12.63
2018-12-23T02:15:16.708Z,12.63
2018-12-23T02:17:46.418Z,12.64
2018-12-23T02:20:15.992Z,12.51
2018-12-23T02:22:45.739Z,12.58
2018-12-23T02:25:15.088Z,12.57
2018-12-23T02:27:44.647Z,12.60
2018-12-23T02:30:14.107Z,12.59
2018-12-23T02:32:43.674Z,12.46
2018-12-23T02:35:13.428Z,12.44
2018-12-23T02:37:43.157Z,12.45
2018-12-23T02:40:13.004Z,12.45
2018-12-23T02:42:42.635Z,12.45
2018-12-23T02:45:12.104Z,12.43
2018-12-23T02:47:42.481Z,12.33
2018-12-23T02:50:11.612Z,12.34
2018-12-23T02:52:41.001Z,12.39
2018-12-23T02:55:10.588Z,12.38
2018-12-23T02:57:39.679Z,12.30
2018-12-23T03:00:09.345Z,12.27
2018-12-23T03:02:38.747Z,12.26
2018-12-23T03:05:08.570Z,12.26
2018-12-23T03:07:38.077Z,12.34
2018-12-23T03:10:07.885Z,12.34
2018-12-23T03:12:37.386Z,12.28
2018-12-23T03:15:06.679Z,12.26
2018-12-23T03:17:36.314Z,12.34
2018-12-23T03:20:05.896Z,12.32
2018-12-23T03:22:35.297Z,12.33
2018-12-23T03:25:04.599Z,12.30
2018-12-23T03:27:33.852Z,12.30
2018-12-23T03:30:03.417Z,12.24
2018-12-23T03:32:32.820Z,12.31
2018-12-23T03:35:02.194Z,12.34
2018-12-23T03:37:31.425Z,12.34
2018-12-23T03:40:00.558Z,12.29
2018-12-23T03:42:30.043Z,12.31
2018-12-23T03:44:59.519Z,12.28
2018-12-23T03:47:28.963Z,12.32
2018-12-23T03:49:58.517Z,12.32
2018-12-23T03:52:27.995Z,12.29
2018-12-23T03:54:57.974Z,12.30
2018-12-23T03:57:27.556Z,12.26
2018-12-23T03:59:56.958Z,12.24
2018-12-23T04:02:26.280Z,12.27
2018-12-23T04:04:55.396Z,12.37
2018-12-23T04:07:24.645Z,12.45
2018-12-23T04:09:53.844Z,12.46
2018-12-23T04:12:23.252Z,12.48
2018-12-23T04:14:52.552Z,12.50
2018-12-23T04:17:21.875Z,12.53
2018-12-23T04:19:51.200Z,12.47
2018-12-23T04:22:20.796Z,12.36
2018-12-23T04:24:50.150Z,12.25
2018-12-23T04:27:19.264Z,12.29
2018-12-23T04:29:48.764Z,12.20
2018-12-23T04:32:18.173Z,12.24
2018-12-23T04:34:47.631Z,12.23
2018-12-23T04:37:16.778Z,12.32
2018-12-23T04:39:46.075Z,12.35
2018-12-23T04:42:15.374Z,12.33
2018-12-23T04:44:44.647Z,12.40
2018-12-23T04:47:13.695Z,12.43
2018-12-23T04:49:42.926Z,12.45
2018-12-23T04:52:12.052Z,12.42
2018-12-23T04:54:41.592Z,12.41
2018-12-23T04:57:10.731Z,12.36
2018-12-23T04:59:39.967Z,12.27
2018-12-23T05:02:09.244Z,12.32
2018-12-23T05:04:38.597Z,12.37
2018-12-23T05:07:07.964Z,12.29
2018-12-23T05:09:37.391Z,12.32
2018-12-23T05:12:06.627Z,12.36
2018-12-23T05:14:36.012Z,12.31
2018-12-23T05:17:05.476Z,12.30
2018-12-23T05:19:34.787Z,12.36
2018-12-23T05:22:04.062Z,12.40
2018-12-23T05:24:33.619Z,12.39
2018-12-23T05:27:02.832Z,12.33
2018-12-23T05:29:32.113Z,12.26
2018-12-23T05:32:01.801Z,12.06
2018-12-23T05:34:34.407Z,11.86
2018-12-23T05:37:03.714Z,11.90
2018-12-23T05:39:33.211Z,12.07
2018-12-23T05:42:02.635Z,12.16
2018-12-23T05:44:31.824Z,12.13
2018-12-23T05:47:01.164Z,12.13
2018-12-23T05:49:30.493Z,12.21
2018-12-23T05:51:59.854Z,12.27
2018-12-23T05:54:29.090Z,12.31
2018-12-23T05:56:58.391Z,12.35
2018-12-23T05:59:27.754Z,12.31
2018-12-23T06:01:56.904Z,12.32
2018-12-23T06:04:26.092Z,12.32
2018-12-23T06:07:00.914Z,12.35
2018-12-23T06:09:26.812Z,12.36
2018-12-23T06:11:56.482Z,12.31
2018-12-23T06:14:26.160Z,12.38
2018-12-23T06:16:55.418Z,12.43
2018-12-23T06:19:24.598Z,12.42
2018-12-23T06:21:53.944Z,12.37
2018-12-23T06:24:23.315Z,12.13
2018-12-23T06:26:52.663Z,11.72
2018-12-23T06:29:21.971Z,11.79
2018-12-23T06:31:51.137Z,12.02
2018-12-23T06:34:20.472Z,12.14
2018-12-23T06:36:49.832Z,11.76
2018-12-23T06:39:19.191Z,11.78
2018-12-23T06:41:48.911Z,11.75
2018-12-23T06:44:19.272Z,11.55
2018-12-23T06:46:48.590Z,11.45
2018-12-23T06:49:17.850Z,11.46
2018-12-23T06:51:47.219Z,11.36
2018-12-23T06:54:16.391Z,11.35
2018-12-23T06:56:45.592Z,11.32
2018-12-23T06:59:14.969Z,11.35
2018-12-23T07:01:44.112Z,11.35
2018-12-23T07:04:13.447Z,11.48
2018-12-23T07:06:42.560Z,11.48
2018-12-23T07:09:12.367Z,11.66
2018-12-23T07:11:41.860Z,11.67
2018-12-23T07:14:11.544Z,11.78
2018-12-23T07:16:40.917Z,11.84
2018-12-23T07:19:10.335Z,11.75
2018-12-23T07:21:39.619Z,11.80
2018-12-23T07:24:09.084Z,11.79
2018-12-23T07:26:38.183Z,11.75
2018-12-23T07:29:07.317Z,11.71
2018-12-23T07:31:36.609Z,11.69
2018-12-23T07:34:06.052Z,11.83
2018-12-23T07:36:35.330Z,11.96
2018-12-23T07:39:05.863Z,12.11
2018-12-23T07:41:35.157Z,12.12
2018-12-23T07:44:04.452Z,12.12
2018-12-23T07:46:34.039Z,12.10
2018-12-23T07:49:03.449Z,12.07
2018-12-23T07:51:32.463Z,12.16
2018-12-23T07:54:01.653Z,11.99
2018-12-23T07:56:30.834Z,11.94
2018-12-23T07:59:00.128Z,11.94
2018-12-23T08:01:29.063Z,12.05
2018-12-23T08:03:58.059Z,11.98
2018-12-23T08:06:27.375Z,11.98
2018-12-23T08:08:55.864Z,12.01
2018-12-23T08:11:24.874Z,12.07
2018-12-23T08:13:54.091Z,12.24
2018-12-23T08:16:24.086Z,12.32
2018-12-23T08:18:53.480Z,12.38
2018-12-23T08:21:22.799Z,12.43
2018-12-23T08:23:52.185Z,12.43
2018-12-23T08:26:21.483Z,12.44
2018-12-23T08:28:50.908Z,12.51
2018-12-23T08:31:20.232Z,12.38
2018-12-23T08:33:49.555Z,12.48
2018-12-23T08:36:18.649Z,12.45
2018-12-23T08:38:47.625Z,12.53
2018-12-23T08:41:16.597Z,12.75
2018-12-23T08:43:45.569Z,12.65
2018-12-23T08:46:14.548Z,12.92
2018-12-23T08:48:43.607Z,12.86
2018-12-23T08:51:12.556Z,12.85
2018-12-23T08:53:41.494Z,12.94
2018-12-23T08:56:10.628Z,13.02
2018-12-23T08:58:39.760Z,12.98
2018-12-23T09:01:09.703Z,13.02
2018-12-23T09:03:38.954Z,13.08
2018-12-23T09:06:08.471Z,12.97
2018-12-23T09:08:37.854Z,13.00
2018-12-23T09:11:06.921Z,13.06
2018-12-23T09:13:36.164Z,13.09
2018-12-23T09:16:05.400Z,13.10
2018-12-23T09:18:34.680Z,12.68
2018-12-23T09:21:04.091Z,12.46
2018-12-23T09:23:33.264Z,12.65
2018-12-23T09:29:05.060Z,12.75
2018-12-23T09:31:34.197Z,12.98
2018-12-23T09:34:03.712Z,12.80
2018-12-23T09:36:33.090Z,12.69
2018-12-23T09:39:02.639Z,12.64
2018-12-23T09:41:31.871Z,12.17
2018-12-23T09:44:01.081Z,12.06
2018-12-23T09:46:30.246Z,11.89
2018-12-23T09:48:59.668Z,11.92
2018-12-23T09:51:28.645Z,12.20
2018-12-23T09:53:57.632Z,12.18
2018-12-23T09:56:26.927Z,12.17
2018-12-23T09:58:56.199Z,12.36
2018-12-23T10:01:25.532Z,12.18
2018-12-23T10:03:54.976Z,12.75
2018-12-23T10:06:24.625Z,12.44
2018-12-23T10:08:53.837Z,12.08
2018-12-23T10:11:23.416Z,11.96
2018-12-23T10:13:52.775Z,11.65
2018-12-23T10:16:22.278Z,11.93
2018-12-23T10:18:51.652Z,12.24
2018-12-23T10:21:21.078Z,12.66
2018-12-23T10:23:50.882Z,12.58
2018-12-23T10:26:20.359Z,12.90
2018-12-23T10:28:49.823Z,12.54
2018-12-23T10:31:19.262Z,12.16
2018-12-23T10:33:48.644Z,11.73
2018-12-23T10:36:18.207Z,11.89
2018-12-23T10:38:47.808Z,11.39
2018-12-23T10:41:17.308Z,10.90
2018-12-23T10:43:46.591Z,10.94
2018-12-23T10:46:15.807Z,11.20
2018-12-23T10:48:45.162Z,11.14
2018-12-23T10:51:14.613Z,11.02
2018-12-23T10:53:43.777Z,11.03
2018-12-23T10:56:13.012Z,11.36
2018-12-23T10:58:42.151Z,11.60
2018-12-23T11:01:11.278Z,11.43
2018-12-23T11:03:40.819Z,11.25
2018-12-23T11:06:09.976Z,11.21
2018-12-23T11:08:39.272Z,11.99
2018-12-23T11:11:08.481Z,12.67
2018-12-23T11:13:37.609Z,12.68
2018-12-23T11:16:06.817Z,12.44
2018-12-23T11:18:36.128Z,12.89
2018-12-23T11:21:05.573Z,12.38
2018-12-23T11:23:35.028Z,12.68
2018-12-23T11:26:04.456Z,12.72
2018-12-23T11:29:08.287Z,12.85
2018-12-23T11:31:38.453Z,12.98
2018-12-23T11:34:08.836Z,13.11
2018-12-23T11:36:39.344Z,13.15
2018-12-23T11:39:10.260Z,13.00
2018-12-23T11:41:40.536Z,13.01
2018-12-23T11:44:10.704Z,13.11
2018-12-23T11:46:40.925Z,13.09
2018-12-23T11:49:10.990Z,13.13
2018-12-23T11:51:41.260Z,13.01
2018-12-23T11:54:11.391Z,12.97
2018-12-23T11:56:41.552Z,12.96
2018-12-23T11:59:11.793Z,13.08
2018-12-23T12:01:42.107Z,13.02
2018-12-23T12:04:12.296Z,13.26
2018-12-23T12:06:42.403Z,13.39
2018-12-23T12:09:12.721Z,13.46
2018-12-23T12:11:42.714Z,13.60
2018-12-23T12:14:12.904Z,13.58
2018-12-23T12:16:43.097Z,13.40
2018-12-23T12:19:13.205Z,13.30
2018-12-23T12:21:43.172Z,12.90
2018-12-23T12:24:13.330Z,12.69
2018-12-23T12:26:43.435Z,12.62
2018-12-23T12:29:13.525Z,12.76
2018-12-23T12:31:43.747Z,12.93
2018-12-23T12:34:13.844Z,13.23
2018-12-23T12:36:44.081Z,13.08
2018-12-23T12:39:14.459Z,12.87
2018-12-23T12:41:44.507Z,12.54
2018-12-23T12:44:14.714Z,12.73
2018-12-23T12:46:44.890Z,12.79
2018-12-23T12:49:15.125Z,12.98
2018-12-23T12:51:45.292Z,13.06
2018-12-23T12:54:15.587Z,13.14
2018-12-23T12:56:45.452Z,13.25
2018-12-23T12:59:15.310Z,13.38
2018-12-23T13:01:45.360Z,13.49
2018-12-23T13:04:15.438Z,13.15
2018-12-23T13:06:45.521Z,13.10
2018-12-23T13:09:15.845Z,12.41
2018-12-23T13:11:46.048Z,12.20
2018-12-23T13:14:16.174Z,12.03
2018-12-23T13:16:46.310Z,11.87
2018-12-23T13:19:16.374Z,11.82
2018-12-23T13:21:49.414Z,11.62
2018-12-23T13:24:19.617Z,11.71
2018-12-23T13:26:49.748Z,12.25
2018-12-23T13:29:19.867Z,12.01
2018-12-23T13:31:50.194Z,11.70
2018-12-23T13:34:20.308Z,12.13
2018-12-23T13:36:50.317Z,11.88
2018-12-23T13:39:20.158Z,11.59
2018-12-23T13:42:15.908Z,11.50
2018-12-23T13:45:15.496Z,11.69
2018-12-23T13:48:10.204Z,11.46
2018-12-23T13:51:29.163Z,11.11
2018-12-23T13:54:38.541Z,10.99
2018-12-23T13:57:21.361Z,10.94
2018-12-23T14:00:19.816Z,10.94
2018-12-23T14:03:15.151Z,11.09
2018-12-23T14:06:08.124Z,11.19
2018-12-23T14:09:17.410Z,10.99
2018-12-23T14:11:59.422Z,10.90
2018-12-23T14:14:29.267Z,10.96
2018-12-23T14:16:59.226Z,10.94
2018-12-23T14:19:29.182Z,10.97
2018-12-23T14:21:59.168Z,10.90
2018-12-23T14:24:31.199Z,11.16
2018-12-23T14:27:00.738Z,11.32
2018-12-23T14:29:30.693Z,11.61
2018-12-23T14:32:00.641Z,11.28
2018-12-23T14:34:30.473Z,11.74
2018-12-23T14:37:00.342Z,11.59
2018-12-23T14:39:30.155Z,11.82
2018-12-23T14:42:00.090Z,11.59
2018-12-23T14:44:30.030Z,11.98
2018-12-23T14:46:59.914Z,11.73
2018-12-23T14:49:29.875Z,10.99
2018-12-23T14:51:59.959Z,10.82
2018-12-23T14:54:29.891Z,11.14
2018-12-23T14:56:59.690Z,10.84
2018-12-23T14:59:29.657Z,10.39
2018-12-23T15:01:59.561Z,10.51
2018-12-23T15:04:29.482Z,10.69
2018-12-23T15:06:59.403Z,10.55
2018-12-23T15:09:34.270Z,10.73
2018-12-23T15:12:01.040Z,10.42
2018-12-23T15:14:31.029Z,10.23
2018-12-23T15:17:01.010Z,10.15
2018-12-23T15:19:31.037Z,10.25
2018-12-23T15:23:11.807Z,10.15
2018-12-23T15:25:41.755Z,9.90
2018-12-23T15:28:11.801Z,10.31
2018-12-23T15:30:41.623Z,10.30
2018-12-23T15:33:12.618Z,10.37
2018-12-23T15:35:43.750Z,10.23
2018-12-23T15:38:13.600Z,10.09
2018-12-23T15:40:50.728Z,9.92
2018-12-23T15:43:21.567Z,9.84
2018-12-23T15:45:51.445Z,9.69
2018-12-23T15:48:21.352Z,9.78
2018-12-23T15:50:55.022Z,9.96
2018-12-23T15:53:24.688Z,10.16
2018-12-23T15:55:54.716Z,10.23
2018-12-23T15:58:24.687Z,10.12
2018-12-23T16:00:54.613Z,10.61
2018-12-23T16:03:24.512Z,11.17
2018-12-23T16:05:54.369Z,11.48
2018-12-23T16:08:24.265Z,11.74
2018-12-23T16:10:54.243Z,11.79
2018-12-23T16:13:35.343Z,11.84
2018-12-23T16:16:05.248Z,11.88
2018-12-23T16:18:35.099Z,11.92
2018-12-23T16:21:04.956Z,11.97
2018-12-23T16:23:34.961Z,11.97
2018-12-23T16:26:04.854Z,11.98
2018-12-23T16:28:37.162Z,11.94
2018-12-23T16:31:07.124Z,12.00
2018-12-23T16:33:37.304Z,12.10
2018-12-23T16:36:07.237Z,12.18
2018-12-23T16:38:37.756Z,12.24
2018-12-23T16:41:07.620Z,12.35
2018-12-23T16:43:37.716Z,12.42
2018-12-23T16:46:07.924Z,12.53
2018-12-23T16:48:38.111Z,12.53
2018-12-23T16:51:08.184Z,12.54
2018-12-23T16:53:38.290Z,12.57
2018-12-23T16:56:08.357Z,12.48
2018-12-23T16:58:38.484Z,12.48
2018-12-23T17:01:08.856Z,12.55
2018-12-23T17:03:39.218Z,12.49
2018-12-23T17:06:09.397Z,12.52
2018-12-23T17:08:39.651Z,12.56
2018-12-23T17:11:10.169Z,12.57
2018-12-23T17:13:41.005Z,12.58
2018-12-23T17:16:11.430Z,12.49
2018-12-23T17:18:42.681Z,12.47
2018-12-23T17:21:12.895Z,12.54
2018-12-23T17:23:43.027Z,12.57
2018-12-23T17:26:13.187Z,12.59
2018-12-23T17:28:43.503Z,12.49
2018-12-23T17:31:13.895Z,12.56
2018-12-23T17:33:44.097Z,12.58
2018-12-23T17:36:14.500Z,12.52
2018-12-23T17:38:44.927Z,12.48
2018-12-23T17:41:15.253Z,12.54
2018-12-23T17:43:45.606Z,12.57
2018-12-23T17:46:15.862Z,12.57
2018-12-23T17:48:46.039Z,12.43
2018-12-23T17:51:16.276Z,12.43
2018-12-23T17:53:46.589Z,12.39
2018-12-23T17:56:16.559Z,12.48
2018-12-23T17:58:46.676Z,12.34
2018-12-23T18:01:17.108Z,12.01
2018-12-23T18:03:47.194Z,12.18
2018-12-23T18:06:17.427Z,12.12
2018-12-23T18:08:47.737Z,12.19
2018-12-23T18:11:18.182Z,12.19
2018-12-23T18:13:48.322Z,11.64
2018-12-23T18:16:18.889Z,11.69
2018-12-23T18:18:49.153Z,12.00
2018-12-23T18:21:20.035Z,11.54
2018-12-23T18:23:50.492Z,11.77
2018-12-23T18:26:20.664Z,12.04
2018-12-23T18:28:50.944Z,12.23
2018-12-23T18:31:20.999Z,12.38
2018-12-23T18:33:51.482Z,12.43
2018-12-23T18:36:21.610Z,12.46
2018-12-23T18:38:51.898Z,12.58
2018-12-23T18:41:21.991Z,12.62
2018-12-23T18:43:52.067Z,12.67
2018-12-23T18:46:22.213Z,12.72
2018-12-23T18:48:52.406Z,12.67
2018-12-23T18:51:22.520Z,12.56
2018-12-23T18:53:52.774Z,12.65
2018-12-23T18:56:31.758Z,12.35
2018-12-23T18:59:01.876Z,12.47
2018-12-23T19:01:32.336Z,12.62
2018-12-23T19:04:02.379Z,12.69
2018-12-23T19:06:32.585Z,12.76
2018-12-23T19:09:16.716Z,12.74
2018-12-23T19:12:29.643Z,12.80
2018-12-23T19:15:55.478Z,12.77
2018-12-23T19:18:52.455Z,12.80
2018-12-23T19:21:58.586Z,12.78
2018-12-23T19:24:45.330Z,12.52
2018-12-23T19:27:58.624Z,12.35
2018-12-23T19:31:16.701Z,12.10
2018-12-23T19:33:59.449Z,12.28
2018-12-23T19:37:05.781Z,12.57
2018-12-23T19:40:12.904Z,12.72
2018-12-23T19:43:20.676Z,12.68
2018-12-23T19:46:30.211Z,12.51
2018-12-23T19:49:56.341Z,12.50
2018-12-23T19:53:02.004Z,12.64
2018-12-23T19:56:08.560Z,12.54
2018-12-23T19:59:21.981Z,12.52
2018-12-23T20:02:30.511Z,12.60
2018-12-23T20:05:44.865Z,12.80
2018-12-23T20:08:57.474Z,12.88
2018-12-23T20:12:16.381Z,13.18
2018-12-23T20:14:59.622Z,12.99
2018-12-23T20:18:06.273Z,13.24
2018-12-23T20:21:29.369Z,13.19
2018-12-23T20:24:38.587Z,13.20
2018-12-23T20:27:56.209Z,13.21
2018-12-23T20:31:07.220Z,13.16
2018-12-23T20:34:33.181Z,13.39
2018-12-23T20:37:27.467Z,13.31
2018-12-23T20:40:41.109Z,13.33
2018-12-23T20:43:38.573Z,13.52
2018-12-23T20:47:00.822Z,13.71
2018-12-23T20:50:08.513Z,13.90
2018-12-23T20:53:20.614Z,13.64
2018-12-23T20:56:18.368Z,13.74
2018-12-23T20:59:05.035Z,13.70
2018-12-23T21:02:08.083Z,13.74
2018-12-23T21:05:07.493Z,13.97
2018-12-23T21:08:20.806Z,14.00
2018-12-23T21:11:23.407Z,14.10
2018-12-23T21:14:34.187Z,14.19
2018-12-23T21:17:57.236Z,14.22
2018-12-23T21:21:32.380Z,14.30
2018-12-23T21:24:39.133Z,14.09
2018-12-23T21:27:50.047Z,14.27
2018-12-23T21:30:59.067Z,14.28
2018-12-23T21:33:59.473Z,14.30
2018-12-23T21:37:09.391Z,14.34
2018-12-23T21:40:15.515Z,14.51
2018-12-23T21:43:35.894Z,14.49
2018-12-23T21:46:44.539Z,14.65
2018-12-23T21:49:41.544Z,14.66
2018-12-23T21:52:50.856Z,14.70
2018-12-23T21:56:06.173Z,14.77
2018-12-23T21:59:15.283Z,14.73
2018-12-23T22:02:24.968Z,14.84
2018-12-23T22:05:31.049Z,14.74
2018-12-23T22:08:38.178Z,14.87
2018-12-23T22:11:58.060Z,14.88
2018-12-23T22:14:28.297Z,14.80
2018-12-23T22:16:58.573Z,14.75
2018-12-23T22:19:28.628Z,14.69
2018-12-23T22:21:58.766Z,14.71
2018-12-23T22:24:28.899Z,14.72
2018-12-23T22:26:59.253Z,14.65
2018-12-23T22:29:29.467Z,14.54
2018-12-23T22:31:59.869Z,14.61
2018-12-23T22:34:29.980Z,14.59
2018-12-23T22:37:00.123Z,14.76
2018-12-23T22:39:30.226Z,14.66
2018-12-23T22:42:00.304Z,14.83
2018-12-23T22:44:30.494Z,14.74
2018-12-23T22:47:00.623Z,14.73
2018-12-23T22:49:30.809Z,14.77
2018-12-23T22:52:00.886Z,14.74
2018-12-23T22:54:31.169Z,14.78
2018-12-23T22:57:01.188Z,14.86
2018-12-23T22:59:31.418Z,14.70
2018-12-23T23:02:01.445Z,14.84
2018-12-23T23:04:31.679Z,14.74
2018-12-23T23:07:01.782Z,14.81
2018-12-23T23:09:32.013Z,14.74
2018-12-23T23:12:02.163Z,14.77
2018-12-23T23:14:32.325Z,14.83
2018-12-23T23:17:02.506Z,14.79
2018-12-23T23:19:32.806Z,14.66
2018-12-23T23:22:02.920Z,14.56
2018-12-23T23:24:32.976Z,14.70
2018-12-23T23:27:03.003Z,14.62
2018-12-23T23:29:33.161Z,14.67
2018-12-23T23:32:03.483Z,14.75
2018-12-23T23:34:33.496Z,14.77
2018-12-23T23:37:03.703Z,14.74
2018-12-23T23:39:33.830Z,14.81
2018-12-23T23:42:03.885Z,14.76
2018-12-23T23:44:33.967Z,14.87
2018-12-23T23:47:04.170Z,14.68
2018-12-23T23:49:34.563Z,14.13
2018-12-23T23:52:04.868Z,13.69
2018-12-23T23:54:35.087Z,13.15
2018-12-23T23:57:05.141Z,13.07
2018-12-23T23:59:35.036Z,12.87
